Portada
METAR-TAF:

METAR-TAF

Aeropuertos :

Udaipur, India

latitud: 24-37-04N, longitud: 73-53-46E, altitud: 513 m

Observación

El informe se hizo hace 1 hora y 45 minutos, a las 13:30 UTC
Viento 3 kt del oeste
Temperatura 29°C
Humedad 31%
Presión 1010 hPa
Visibilidad: 6000 m
Nubes dispersas a una altura de 10000 ft

METAR: VAUD 271330Z 27003KT 6000 SCT100 29/10 Q1010 NOSIG

Hora: 20:45 (15:15 UTC)

Pronóstico

El informe se hizo hace 4 horas y 15 minutos, a las 11:00 UTC
Pronóstico válido del 27 a las 12 UTC al 27 a las 21 UTC
Viento 10 kt del oeste-noroeste
Visibilidad: 3000 m
calima

TAF: VAUD 271100Z 2712/2721 29010KT 3000 HZ NSC

Observaciones y pronósticos meteorológicos de más de 4000 aeropuertos (mensajes METAR y TAF).

Los puntos amarillos y rojos representan las estaciones disponibles.

Ponga el ratón en el punto deseado para ver el nombre de la estación.

Haga clic para ver las observaciones y los pronósticos meteorológicos.

Para cambiar el mapa : haga clic en los botones verdes con una cruz de color negro para hacer un zoom, en el botón verde con un guión para alejar o en las flechas verdes para mapas adyacentes.


METAR-TAF: